PST,Max TemperatureF,Mean TemperatureF,Min TemperatureF,Max Dew PointF,MeanDew PointF,Min DewpointF,Max Humidity, Mean Humidity, Min Humidity, Max Sea Level PressureIn, Mean Sea Level PressureIn, Min Sea Level PressureIn, Max VisibilityMiles, Mean VisibilityMiles, Min VisibilityMiles, Max Wind SpeedMPH, Mean Wind SpeedMPH, Max Gust SpeedMPH,PrecipitationIn, CloudCover, Events, WindDirDegrees
2013-12-1,71,56,41,50,42,37,100,65,29,30.35,30.28,30.25,10,8,0,10,4,13,0.01,1,Fog,105
2013-12-2,60,52,44,52,48,38,93,82,71,30.25,30.13,30.04,10,10,10,15,5,20,0.00,3,,240
2013-12-3,56,49,41,54,45,34,93,72,51,30.03,29.97,29.91,10,9,2,23,9,32,0.01,5,Rain,235
2013-12-4,53,43,33,33,27,16,79,51,22,30.12,30.06,29.99,10,10,10,10,5,15,0.00,0,,73
2013-12-5,51,41,30,31,25,20,72,51,29,30.22,30.17,30.11,10,10,10,9,4,13,0.00,0,,77
2013-12-6,54,45,36,46,34,26,68,56,44,30.25,30.17,30.01,10,10,9,18,6,28,0.02,3,Rain,156
2013-12-7,53,47,40,48,37,28,93,70,46,30.30,30.12,29.95,10,9,3,21,9,28,0.24,6,Rain,271
2013-12-8,48,40,32,32,27,23,82,62,42,30.33,30.28,30.23,10,10,10,13,5,17,0.00,1,,59
2013-12-9,54,41,28,33,25,21,75,52,28,30.41,30.37,30.32,10,10,10,13,5,16,0.00,0,,88
2013-12-10,62,46,29,42,24,15,76,47,17,30.40,30.28,30.21,10,10,10,9,4,10,0.00,0,,81
2013-12-11,61,47,32,40,28,22,79,53,26,30.24,30.21,30.19,10,10,10,9,3,,0.00,0,,98
2013-12-12,60,48,35,46,35,23,89,64,38,30.29,30.25,30.21,10,10,6,12,4,14,0.00,0,,96
2013-12-13,56,46,35,41,36,30,93,74,55,30.36,30.30,30.25,10,10,8,9,4,10,0.00,0,,83
2013-12-14,66,52,38,46,34,27,70,51,31,30.38,30.34,30.31,10,10,10,10,4,12,0.00,0,,107
2013-12-15,68,53,38,40,32,25,70,49,28,30.34,30.28,30.22,10,10,10,9,2,12,0.00,0,,146
2013-12-16,75,57,39,35,30,25,65,42,18,30.21,30.16,30.12,10,10,10,8,2,9,0.00,0,,110
2013-12-17,75,62,48,46,34,26,59,41,23,30.16,30.10,30.04,10,7,2,9,2,12,0.00,1,,95
2013-12-18,56,52,48,49,45,36,89,70,50,30.06,29.97,29.87,10,8,4,15,6,21,T,5,,221
2013-12-19,57,50,43,45,41,36,83,65,47,29.96,29.85,29.79,10,10,8,21,8,28,T,4,Rain,274
2013-12-20,59,48,37,38,25,11,79,48,16,30.05,30.01,29.95,10,10,10,10,5,12,0.00,0,,73
2013-12-21,58,49,40,50,43,21,93,68,43,30.12,30.04,29.98,10,10,8,12,4,14,0.00,2,,210
2013-12-22,64,52,40,48,41,36,86,65,43,30.34,30.24,30.13,10,10,10,8,4,10,0.00,0,,90
2013-12-23,64,52,40,49,40,34,89,72,55,30.41,30.36,30.29,10,10,4,8,3,9,0.00,0,,73
2013-12-24,73,57,41,45,38,34,76,51,26,30.34,30.28,30.22,10,10,10,10,4,13,0.00,0,,90
2013-12-25,74,57,40,39,35,32,70,48,25,30.27,30.24,30.21,10,10,10,10,3,12,0.00,0,,97
2013-12-26,77,60,42,41,29,22,62,38,14,30.24,30.21,30.16,10,10,9,9,2,12,0.00,0,,171
2013-12-27,69,57,44,41,26,16,55,36,17,30.22,30.18,30.13,10,10,10,12,2,13,0.00,0,,96
2013-12-28,63,52,40,46,35,25,85,61,36,30.15,30.11,30.05,10,10,7,13,4,14,0.00,0,,86
2013-12-29,70,56,42,32,28,24,62,41,20,30.20,30.14,30.11,10,10,10,13,4,15,0.00,0,,102
2013-12-30,64,52,40,46,35,23,83,59,35,30.30,30.25,30.20,10,10,10,9,3,10,0.00,0,,99
2013-12-31,57,48,38,48,38,29,89,65,40,30.30,30.24,30.19,10,10,8,10,4,14,0.00,0,,89